Terminal Aerodrome Forecast
Issued by NWS Grand Forks, ND

Home | Current Version | Previous Version | Graphics & Text | Print | Product List | Glossary On
Versions: 1 2 3 4 5 6 7 8 9 10 11 12
000
FTUS43 KFGF 031100
TAFFAR
TAF
KFAR 031120Z 0312/0412 32023G33KT P6SM BKN040
      TEMPO 0312/0315 5SM -SN OVC025
     FM031800 32024G35KT P6SM BKN040
     FM040000 30018KT P6SM BKN060
     FM040600 29012KT P6SM SCT250=

USA.gov is the U.S. government's official web portal to all federal, state and local government web resources and services.